Aeroporto :
LOGIN :

Iscrizione | Disclaimer

   EN    FR    IT 

 










Sommario :    VFR   VFR Marginale   IFR   IFR Intensivo   IFR Molto Intensivo
Visibilità : 
Base nubi : 
>= 8 km
>= 3000ft
5 / 8 km
1000 / 3000 ft
1500m / 5 km
500 / 1000 ft
800 / 1500m
200 / 500 ft
< 800m
< 200 ft
Simboli :   Temporali  Nebbia  Neve Forte  Precipitazioni Forti  Vento > 20 kt
SIGMETs :   Varie  Temporali  Ghiacco  Turbolenza  Onda orograficha  Ceneri Vulcaniche







- Altitudine del aeroporto : 20 ft


EBFN - Koksijde

ULTIMO METAR :
  • 172236Z AUTO 34012KT 9999 BKN024/// 05/00 Q1016 WHT

METARs OBSOLETI :
  • 172225Z AUTO 34012KT 9999 BKN027/// 05/00 Q1017 BLU
  • 172155Z AUTO 34014KT 9999 BKN023/// 05/00 Q1016 WHT
  • 172125Z AUTO 32015KT 9999 BKN023/// BKN055/// 05/M00 Q1016 WHT
  • 172055Z AUTO 32016KT 9999 BKN023/// 05/00 Q1016 WHT
  • 172025Z AUTO 31015KT 9999 BKN022/// 05/00 Q1016 WHT
  • 172006Z AUTO 31015KT 9999 BKN023/// 05/00 Q1015 WHT
  • 171955Z AUTO 31015KT 9999 BKN025/// 05/M00 Q1015 BLU

TAF TAF EBFN
Valido dal 17 a 19 ore il 18 a 07 ore UTC


171541Z 1719/1807 32020G30KT 9999 SCT027 SCT040
TEMPO 1719/1802 6000 -SHRA SCT018 BKN030
PROB30
TEMPO 1719/1802 4000 SHRA BKN016TCU
BECMG 1802/1804 27010KT SCT017 BKN200
BECMG 1804/1806 22006KT
Nessun NOTAM noto per questo aeroporto.



MetMap, La meteo Aeronautica in un colpo d'occhio ! - Copyright ORBIFLY Dicembre 2007 - Disclaimer

ORBIFLY MET'MAP TEAM :

Programmazione e sviluppo : Alexandra Zaïnal
Concezione e sviluppo : Baudouin d'Aumeries
Co-Programmazione e sviluppo : Marc-Olivier Méhu
Supporto tecnico e logistico : Manuel Goepfert
Aiuto per la traduzione : Arnaldo La Scala

Contatto : metmap@orbifly.com




FONTI E CREDITI :

   NOAA